sensor_id;sensor_type;location;lat;lon;timestamp;temperature;humidity
12025;DHT22;6073;53.230;10.444;2023-05-10T00:01:51;13.80;99.90
12025;DHT22;6073;53.230;10.444;2023-05-10T00:04:16;13.80;99.90
12025;DHT22;6073;53.230;10.444;2023-05-10T00:06:42;13.80;99.90
12025;DHT22;6073;53.230;10.444;2023-05-10T00:09:07;13.70;99.90
12025;DHT22;6073;53.230;10.444;2023-05-10T00:11:33;13.70;99.90
12025;DHT22;6073;53.230;10.444;2023-05-10T00:13:59;13.60;99.90
12025;DHT22;6073;53.230;10.444;2023-05-10T00:16:24;13.60;99.90
12025;DHT22;6073;53.230;10.444;2023-05-10T00:18:50;13.50;99.90
12025;DHT22;6073;53.230;10.444;2023-05-10T00:21:15;13.60;99.90
12025;DHT22;6073;53.230;10.444;2023-05-10T00:23:41;13.60;99.90
12025;DHT22;6073;53.230;10.444;2023-05-10T00:26:07;13.60;99.90
12025;DHT22;6073;53.230;10.444;2023-05-10T00:28:32;13.50;99.90
12025;DHT22;6073;53.230;10.444;2023-05-10T00:30:58;13.40;99.90
12025;DHT22;6073;53.230;10.444;2023-05-10T00:33:23;13.40;99.90
12025;DHT22;6073;53.230;10.444;2023-05-10T00:35:49;13.40;99.90
12025;DHT22;6073;53.230;10.444;2023-05-10T00:38:15;13.30;99.90
12025;DHT22;6073;53.230;10.444;2023-05-10T00:40:40;13.30;99.90
12025;DHT22;6073;53.230;10.444;2023-05-10T00:43:06;13.30;99.90
12025;DHT22;6073;53.230;10.444;2023-05-10T00:45:33;13.30;99.90
12025;DHT22;6073;53.230;10.444;2023-05-10T00:48:04;13.30;99.90
12025;DHT22;6073;53.230;10.444;2023-05-10T00:50:31;13.30;99.90
12025;DHT22;6073;53.230;10.444;2023-05-10T00:52:59;13.20;99.90
12025;DHT22;6073;53.230;10.444;2023-05-10T00:55:25;13.20;99.90
12025;DHT22;6073;53.230;10.444;2023-05-10T00:57:53;13.20;99.90
12025;DHT22;6073;53.230;10.444;2023-05-10T01:00:19;13.20;99.90
12025;DHT22;6073;53.230;10.444;2023-05-10T01:02:45;13.10;99.90
12025;DHT22;6073;53.230;10.444;2023-05-10T01:05:15;13.10;99.90
12025;DHT22;6073;53.230;10.444;2023-05-10T01:07:40;13.10;99.90
12025;DHT22;6073;53.230;10.444;2023-05-10T01:10:07;13.10;99.90
12025;DHT22;6073;53.230;10.444;2023-05-10T01:12:35;13.10;99.90
12025;DHT22;6073;53.230;10.444;2023-05-10T01:15:02;13.00;99.90
12025;DHT22;6073;53.230;10.444;2023-05-10T01:17:29;13.00;99.90
12025;DHT22;6073;53.230;10.444;2023-05-10T01:19:55;12.90;99.90
12025;DHT22;6073;53.230;10.444;2023-05-10T01:28:38;12.80;99.90
12025;DHT22;6073;53.230;10.444;2023-05-10T01:34:07;12.80;99.90
12025;DHT22;6073;53.230;10.444;2023-05-10T01:36:55;12.80;99.90
12025;DHT22;6073;53.230;10.444;2023-05-10T01:39:26;12.70;99.90
12025;DHT22;6073;53.230;10.444;2023-05-10T01:42:20;12.70;99.90
12025;DHT22;6073;53.230;10.444;2023-05-10T01:45:14;12.70;99.90
12025;DHT22;6073;53.230;10.444;2023-05-10T01:47:47;12.60;99.90
12025;DHT22;6073;53.230;10.444;2023-05-10T01:50:22;12.60;99.90
12025;DHT22;6073;53.230;10.444;2023-05-10T01:52:51;12.50;99.90
12025;DHT22;6073;53.230;10.444;2023-05-10T01:55:21;12.50;99.90
12025;DHT22;6073;53.230;10.444;2023-05-10T01:57:53;12.40;99.90
12025;DHT22;6073;53.230;10.444;2023-05-10T02:00:22;12.40;99.90
12025;DHT22;6073;53.230;10.444;2023-05-10T02:02:49;12.30;99.90
12025;DHT22;6073;53.230;10.444;2023-05-10T02:05:17;12.30;99.90
12025;DHT22;6073;53.230;10.444;2023-05-10T02:07:43;12.20;99.90
12025;DHT22;6073;53.230;10.444;2023-05-10T02:10:10;12.20;99.90
12025;DHT22;6073;53.230;10.444;2023-05-10T02:12:40;12.20;99.90
12025;DHT22;6073;53.230;10.444;2023-05-10T02:15:07;12.20;99.90
12025;DHT22;6073;53.230;10.444;2023-05-10T02:17:34;12.20;99.90
12025;DHT22;6073;53.230;10.444;2023-05-10T02:20:02;12.20;99.90
12025;DHT22;6073;53.230;10.444;2023-05-10T02:22:29;12.20;99.90
12025;DHT22;6073;53.230;10.444;2023-05-10T02:24:56;12.20;99.90
12025;DHT22;6073;53.230;10.444;2023-05-10T02:27:23;12.20;99.90
12025;DHT22;6073;53.230;10.444;2023-05-10T02:29:51;12.10;99.90
12025;DHT22;6073;53.230;10.444;2023-05-10T02:32:17;12.10;99.90
12025;DHT22;6073;53.230;10.444;2023-05-10T02:34:44;12.10;99.90
12025;DHT22;6073;53.230;10.444;2023-05-10T02:37:13;12.00;99.90
12025;DHT22;6073;53.230;10.444;2023-05-10T02:39:40;12.00;99.90
12025;DHT22;6073;53.230;10.444;2023-05-10T02:42:11;11.90;99.90
12025;DHT22;6073;53.230;10.444;2023-05-10T02:44:41;11.90;99.90
12025;DHT22;6073;53.230;10.444;2023-05-10T02:47:07;11.90;99.90
12025;DHT22;6073;53.230;10.444;2023-05-10T02:49:33;11.80;99.90
12025;DHT22;6073;53.230;10.444;2023-05-10T02:52:01;11.80;99.90
12025;DHT22;6073;53.230;10.444;2023-05-10T02:54:31;11.80;99.90
12025;DHT22;6073;53.230;10.444;2023-05-10T02:56:59;11.80;99.90
12025;DHT22;6073;53.230;10.444;2023-05-10T02:59:26;11.70;99.90
12025;DHT22;6073;53.230;10.444;2023-05-10T03:01:52;11.70;99.90
12025;DHT22;6073;53.230;10.444;2023-05-10T03:04:18;11.60;99.90
12025;DHT22;6073;53.230;10.444;2023-05-10T03:06:44;11.60;99.90
12025;DHT22;6073;53.230;10.444;2023-05-10T03:09:10;11.70;99.90
12025;DHT22;6073;53.230;10.444;2023-05-10T03:14:45;11.60;99.90
12025;DHT22;6073;53.230;10.444;2023-05-10T03:17:40;11.60;99.90
12025;DHT22;6073;53.230;10.444;2023-05-10T03:20:09;11.60;99.90
12025;DHT22;6073;53.230;10.444;2023-05-10T03:22:50;11.60;99.90
12025;DHT22;6073;53.230;10.444;2023-05-10T03:25:16;11.60;99.90
12025;DHT22;6073;53.230;10.444;2023-05-10T03:27:44;11.60;99.90
12025;DHT22;6073;53.230;10.444;2023-05-10T03:30:11;11.60;99.90
12025;DHT22;6073;53.230;10.444;2023-05-10T03:32:37;11.60;99.90
12025;DHT22;6073;53.230;10.444;2023-05-10T03:35:10;11.60;99.90
12025;DHT22;6073;53.230;10.444;2023-05-10T03:37:37;11.60;99.90
12025;DHT22;6073;53.230;10.444;2023-05-10T03:40:03;11.50;99.90
12025;DHT22;6073;53.230;10.444;2023-05-10T03:42:29;11.60;99.90
12025;DHT22;6073;53.230;10.444;2023-05-10T03:44:55;11.60;99.90
12025;DHT22;6073;53.230;10.444;2023-05-10T03:47:20;11.60;99.90
12025;DHT22;6073;53.230;10.444;2023-05-10T03:49:46;11.60;99.90
12025;DHT22;6073;53.230;10.444;2023-05-10T03:52:11;11.60;99.90
12025;DHT22;6073;53.230;10.444;2023-05-10T03:54:37;11.60;99.90
12025;DHT22;6073;53.230;10.444;2023-05-10T03:57:03;11.60;99.90
12025;DHT22;6073;53.230;10.444;2023-05-10T03:59:29;11.60;99.90
12025;DHT22;6073;53.230;10.444;2023-05-10T04:01:55;11.60;99.90
12025;DHT22;6073;53.230;10.444;2023-05-10T04:04:21;11.70;99.90
12025;DHT22;6073;53.230;10.444;2023-05-10T04:06:47;11.70;99.90
12025;DHT22;6073;53.230;10.444;2023-05-10T04:09:12;11.70;99.90
12025;DHT22;6073;53.230;10.444;2023-05-10T04:11:38;11.70;99.90
12025;DHT22;6073;53.230;10.444;2023-05-10T04:14:03;11.80;99.90
12025;DHT22;6073;53.230;10.444;2023-05-10T04:16:29;11.80;99.90
12025;DHT22;6073;53.230;10.444;2023-05-10T04:18:55;11.80;99.90
12025;DHT22;6073;53.230;10.444;2023-05-10T04:21:20;11.80;99.90
12025;DHT22;6073;53.230;10.444;2023-05-10T04:23:46;11.90;99.90
12025;DHT22;6073;53.230;10.444;2023-05-10T04:26:12;11.90;99.90
12025;DHT22;6073;53.230;10.444;2023-05-10T04:28:38;12.00;99.90
12025;DHT22;6073;53.230;10.444;2023-05-10T04:31:05;12.00;99.90
12025;DHT22;6073;53.230;10.444;2023-05-10T04:33:31;12.00;99.90
12025;DHT22;6073;53.230;10.444;2023-05-10T04:35:57;12.10;99.90
12025;DHT22;6073;53.230;10.444;2023-05-10T04:38:23;12.10;99.90
12025;DHT22;6073;53.230;10.444;2023-05-10T04:40:48;12.10;99.90
12025;DHT22;6073;53.230;10.444;2023-05-10T04:43:14;12.30;99.90
12025;DHT22;6073;53.230;10.444;2023-05-10T04:45:39;12.30;99.90
12025;DHT22;6073;53.230;10.444;2023-05-10T04:48:05;12.40;99.90
12025;DHT22;6073;53.230;10.444;2023-05-10T04:50:31;12.40;99.90
12025;DHT22;6073;53.230;10.444;2023-05-10T04:52:57;12.60;99.90
12025;DHT22;6073;53.230;10.444;2023-05-10T04:55:22;12.90;99.90
12025;DHT22;6073;53.230;10.444;2023-05-10T04:57:48;13.10;99.90
12025;DHT22;6073;53.230;10.444;2023-05-10T05:00:14;13.50;99.90
12025;DHT22;6073;53.230;10.444;2023-05-10T05:02:42;13.90;99.90
12025;DHT22;6073;53.230;10.444;2023-05-10T05:05:09;14.20;99.90
12025;DHT22;6073;53.230;10.444;2023-05-10T05:07:34;14.20;99.90
12025;DHT22;6073;53.230;10.444;2023-05-10T05:10:00;14.30;99.90
12025;DHT22;6073;53.230;10.444;2023-05-10T05:12:25;14.70;99.90
12025;DHT22;6073;53.230;10.444;2023-05-10T05:14:51;15.20;99.90
12025;DHT22;6073;53.230;10.444;2023-05-10T05:17:17;15.70;99.90
12025;DHT22;6073;53.230;10.444;2023-05-10T05:19:42;16.20;99.90
12025;DHT22;6073;53.230;10.444;2023-05-10T05:22:08;16.70;99.90
12025;DHT22;6073;53.230;10.444;2023-05-10T05:24:37;17.10;99.90
12025;DHT22;6073;53.230;10.444;2023-05-10T05:27:03;17.30;99.90
12025;DHT22;6073;53.230;10.444;2023-05-10T05:29:29;17.10;99.90
12025;DHT22;6073;53.230;10.444;2023-05-10T05:31:55;17.60;99.90
12025;DHT22;6073;53.230;10.444;2023-05-10T05:34:20;17.60;99.90
12025;DHT22;6073;53.230;10.444;2023-05-10T05:36:47;17.30;99.90
12025;DHT22;6073;53.230;10.444;2023-05-10T05:39:13;16.50;99.90
12025;DHT22;6073;53.230;10.444;2023-05-10T05:41:38;16.30;99.90
12025;DHT22;6073;53.230;10.444;2023-05-10T05:44:04;16.30;99.90
12025;DHT22;6073;53.230;10.444;2023-05-10T05:46:29;16.20;99.90
12025;DHT22;6073;53.230;10.444;2023-05-10T05:48:55;16.40;99.90
12025;DHT22;6073;53.230;10.444;2023-05-10T05:51:21;16.40;99.90
12025;DHT22;6073;53.230;10.444;2023-05-10T05:53:47;16.50;99.90
12025;DHT22;6073;53.230;10.444;2023-05-10T05:56:12;16.90;99.90
12025;DHT22;6073;53.230;10.444;2023-05-10T05:58:38;16.80;99.90
12025;DHT22;6073;53.230;10.444;2023-05-10T06:01:03;17.20;99.90
12025;DHT22;6073;53.230;10.444;2023-05-10T06:03:29;17.60;99.90
12025;DHT22;6073;53.230;10.444;2023-05-10T06:05:54;17.40;99.90
12025;DHT22;6073;53.230;10.444;2023-05-10T06:08:20;17.50;99.90
12025;DHT22;6073;53.230;10.444;2023-05-10T06:10:45;17.20;99.90
12025;DHT22;6073;53.230;10.444;2023-05-10T06:13:11;17.00;99.90
12025;DHT22;6073;53.230;10.444;2023-05-10T06:15:37;16.50;99.90
12025;DHT22;6073;53.230;10.444;2023-05-10T06:18:02;16.30;99.90
12025;DHT22;6073;53.230;10.444;2023-05-10T06:20:28;16.60;99.90
12025;DHT22;6073;53.230;10.444;2023-05-10T06:22:54;17.20;99.90
12025;DHT22;6073;53.230;10.444;2023-05-10T06:25:19;17.50;99.90
12025;DHT22;6073;53.230;10.444;2023-05-10T06:27:45;18.20;99.90
12025;DHT22;6073;53.230;10.444;2023-05-10T06:30:11;18.70;99.90
12025;DHT22;6073;53.230;10.444;2023-05-10T06:32:38;18.90;99.90
12025;DHT22;6073;53.230;10.444;2023-05-10T06:35:04;18.70;99.90
12025;DHT22;6073;53.230;10.444;2023-05-10T06:37:30;17.90;99.90
12025;DHT22;6073;53.230;10.444;2023-05-10T06:39:55;17.30;99.90
12025;DHT22;6073;53.230;10.444;2023-05-10T06:42:21;17.00;99.90
12025;DHT22;6073;53.230;10.444;2023-05-10T06:44:46;16.80;99.90
12025;DHT22;6073;53.230;10.444;2023-05-10T06:47:12;16.60;99.90
12025;DHT22;6073;53.230;10.444;2023-05-10T06:49:37;16.50;99.90
12025;DHT22;6073;53.230;10.444;2023-05-10T06:52:03;16.40;99.90
12025;DHT22;6073;53.230;10.444;2023-05-10T06:54:29;16.30;99.90
12025;DHT22;6073;53.230;10.444;2023-05-10T06:56:55;16.30;99.90
12025;DHT22;6073;53.230;10.444;2023-05-10T06:59:20;16.40;99.90
12025;DHT22;6073;53.230;10.444;2023-05-10T07:01:47;16.70;99.90
12025;DHT22;6073;53.230;10.444;2023-05-10T07:04:12;16.80;99.90
12025;DHT22;6073;53.230;10.444;2023-05-10T07:06:38;16.80;99.90
12025;DHT22;6073;53.230;10.444;2023-05-10T07:09:04;17.10;99.90
12025;DHT22;6073;53.230;10.444;2023-05-10T07:11:29;17.30;99.90
12025;DHT22;6073;53.230;10.444;2023-05-10T07:13:55;17.40;99.90
12025;DHT22;6073;53.230;10.444;2023-05-10T07:16:21;17.40;99.90
12025;DHT22;6073;53.230;10.444;2023-05-10T07:18:46;17.50;99.90
12025;DHT22;6073;53.230;10.444;2023-05-10T07:21:12;18.10;99.90
12025;DHT22;6073;53.230;10.444;2023-05-10T07:23:38;18.40;99.90
12025;DHT22;6073;53.230;10.444;2023-05-10T07:26:03;18.60;99.90
12025;DHT22;6073;53.230;10.444;2023-05-10T07:28:29;18.80;99.90
12025;DHT22;6073;53.230;10.444;2023-05-10T07:30:55;18.90;99.90
12025;DHT22;6073;53.230;10.444;2023-05-10T07:33:20;19.10;99.90
12025;DHT22;6073;53.230;10.444;2023-05-10T07:35:46;19.40;99.90
12025;DHT22;6073;53.230;10.444;2023-05-10T07:38:12;19.20;99.90
12025;DHT22;6073;53.230;10.444;2023-05-10T07:40:38;18.90;99.90
12025;DHT22;6073;53.230;10.444;2023-05-10T07:43:04;18.60;99.90
12025;DHT22;6073;53.230;10.444;2023-05-10T07:45:29;18.30;99.90
12025;DHT22;6073;53.230;10.444;2023-05-10T07:47:55;18.10;99.90
12025;DHT22;6073;53.230;10.444;2023-05-10T07:50:20;18.10;99.90
12025;DHT22;6073;53.230;10.444;2023-05-10T07:52:47;17.80;99.90
12025;DHT22;6073;53.230;10.444;2023-05-10T07:55:13;17.80;99.90
12025;DHT22;6073;53.230;10.444;2023-05-10T07:57:38;17.60;99.90
12025;DHT22;6073;53.230;10.444;2023-05-10T08:00:05;17.60;99.90
12025;DHT22;6073;53.230;10.444;2023-05-10T08:02:31;17.90;99.90
12025;DHT22;6073;53.230;10.444;2023-05-10T08:04:56;18.00;99.90
12025;DHT22;6073;53.230;10.444;2023-05-10T08:07:24;18.40;99.90
12025;DHT22;6073;53.230;10.444;2023-05-10T08:09:49;18.40;99.90
12025;DHT22;6073;53.230;10.444;2023-05-10T08:12:15;18.60;99.90
12025;DHT22;6073;53.230;10.444;2023-05-10T08:14:41;18.80;99.90
12025;DHT22;6073;53.230;10.444;2023-05-10T08:17:07;18.80;99.90
12025;DHT22;6073;53.230;10.444;2023-05-10T08:19:32;19.10;99.90
12025;DHT22;6073;53.230;10.444;2023-05-10T08:21:58;19.10;99.90
12025;DHT22;6073;53.230;10.444;2023-05-10T08:24:24;18.80;99.90
12025;DHT22;6073;53.230;10.444;2023-05-10T08:26:49;18.90;99.90
12025;DHT22;6073;53.230;10.444;2023-05-10T08:29:15;18.70;99.90
12025;DHT22;6073;53.230;10.444;2023-05-10T08:31:41;18.70;99.90
12025;DHT22;6073;53.230;10.444;2023-05-10T08:34:06;18.20;99.90
12025;DHT22;6073;53.230;10.444;2023-05-10T08:36:32;18.20;99.90
12025;DHT22;6073;53.230;10.444;2023-05-10T08:38:58;18.00;99.90
12025;DHT22;6073;53.230;10.444;2023-05-10T08:41:25;17.70;99.90
12025;DHT22;6073;53.230;10.444;2023-05-10T08:43:53;17.50;99.90
12025;DHT22;6073;53.230;10.444;2023-05-10T08:46:20;17.20;99.90
12025;DHT22;6073;53.230;10.444;2023-05-10T08:48:47;17.00;99.90
12025;DHT22;6073;53.230;10.444;2023-05-10T08:51:14;16.70;99.90
12025;DHT22;6073;53.230;10.444;2023-05-10T08:53:40;16.60;99.90
12025;DHT22;6073;53.230;10.444;2023-05-10T08:56:06;16.50;99.90
12025;DHT22;6073;53.230;10.444;2023-05-10T08:58:32;16.60;99.90
12025;DHT22;6073;53.230;10.444;2023-05-10T09:00:59;16.70;99.90
12025;DHT22;6073;53.230;10.444;2023-05-10T09:03:24;16.70;99.90
12025;DHT22;6073;53.230;10.444;2023-05-10T09:05:50;17.10;99.90
12025;DHT22;6073;53.230;10.444;2023-05-10T09:08:17;17.10;99.90
12025;DHT22;6073;53.230;10.444;2023-05-10T09:10:43;17.00;99.90
12025;DHT22;6073;53.230;10.444;2023-05-10T09:13:10;17.00;99.90
12025;DHT22;6073;53.230;10.444;2023-05-10T09:15:37;17.00;99.90
12025;DHT22;6073;53.230;10.444;2023-05-10T09:18:02;16.80;99.90
12025;DHT22;6073;53.230;10.444;2023-05-10T09:20:28;16.80;99.90
12025;DHT22;6073;53.230;10.444;2023-05-10T09:22:54;16.80;99.90
12025;DHT22;6073;53.230;10.444;2023-05-10T09:25:19;16.90;99.90
12025;DHT22;6073;53.230;10.444;2023-05-10T09:27:46;16.80;99.90
12025;DHT22;6073;53.230;10.444;2023-05-10T09:30:17;16.90;99.90
12025;DHT22;6073;53.230;10.444;2023-05-10T09:32:45;17.00;99.90
12025;DHT22;6073;53.230;10.444;2023-05-10T09:35:13;16.80;99.90
12025;DHT22;6073;53.230;10.444;2023-05-10T09:37:47;16.80;99.90
12025;DHT22;6073;53.230;10.444;2023-05-10T09:40:21;16.70;99.90
12025;DHT22;6073;53.230;10.444;2023-05-10T09:43:08;16.70;99.90
12025;DHT22;6073;53.230;10.444;2023-05-10T09:45:35;16.70;99.90
12025;DHT22;6073;53.230;10.444;2023-05-10T09:48:02;16.60;99.90
12025;DHT22;6073;53.230;10.444;2023-05-10T09:50:29;16.60;99.90
12025;DHT22;6073;53.230;10.444;2023-05-10T09:52:58;16.50;99.90
12025;DHT22;6073;53.230;10.444;2023-05-10T09:58:01;16.40;99.90
12025;DHT22;6073;53.230;10.444;2023-05-10T10:00:27;16.40;99.90
12025;DHT22;6073;53.230;10.444;2023-05-10T10:02:58;16.40;99.90
12025;DHT22;6073;53.230;10.444;2023-05-10T10:05:43;16.40;99.90
12025;DHT22;6073;53.230;10.444;2023-05-10T10:08:09;16.50;99.90
12025;DHT22;6073;53.230;10.444;2023-05-10T10:10:35;16.50;99.90
12025;DHT22;6073;53.230;10.444;2023-05-10T10:13:01;16.60;99.90
12025;DHT22;6073;53.230;10.444;2023-05-10T10:15:27;16.50;99.90
12025;DHT22;6073;53.230;10.444;2023-05-10T10:17:53;16.30;99.90
12025;DHT22;6073;53.230;10.444;2023-05-10T10:20:21;16.10;99.90
12025;DHT22;6073;53.230;10.444;2023-05-10T10:22:47;15.80;99.90
12025;DHT22;6073;53.230;10.444;2023-05-10T10:25:15;15.70;99.90
12025;DHT22;6073;53.230;10.444;2023-05-10T10:36:02;14.90;99.90
12025;DHT22;6073;53.230;10.444;2023-05-10T10:38:55;14.80;99.90
12025;DHT22;6073;53.230;10.444;2023-05-10T10:41:34;14.80;99.90
12025;DHT22;6073;53.230;10.444;2023-05-10T10:47:06;14.60;99.90
12025;DHT22;6073;53.230;10.444;2023-05-10T10:52:24;14.40;99.90
12025;DHT22;6073;53.230;10.444;2023-05-10T10:55:05;14.40;99.90
12025;DHT22;6073;53.230;10.444;2023-05-10T11:00:28;14.40;99.90
12025;DHT22;6073;53.230;10.444;2023-05-10T11:03:10;14.20;99.90
12025;DHT22;6073;53.230;10.444;2023-05-10T11:05:48;14.30;99.90
12025;DHT22;6073;53.230;10.444;2023-05-10T11:08:27;14.40;99.90
12025;DHT22;6073;53.230;10.444;2023-05-10T11:11:02;14.30;99.90
12025;DHT22;6073;53.230;10.444;2023-05-10T11:13:32;14.30;99.90
12025;DHT22;6073;53.230;10.444;2023-05-10T11:15:59;14.40;99.90
12025;DHT22;6073;53.230;10.444;2023-05-10T11:18:36;14.30;99.90
12025;DHT22;6073;53.230;10.444;2023-05-10T11:21:03;14.30;99.90
12025;DHT22;6073;53.230;10.444;2023-05-10T11:26:09;14.30;99.90
12025;DHT22;6073;53.230;10.444;2023-05-10T11:28:41;14.40;99.90
12025;DHT22;6073;53.230;10.444;2023-05-10T11:31:07;14.50;99.90
12025;DHT22;6073;53.230;10.444;2023-05-10T11:33:43;14.70;99.90
12025;DHT22;6073;53.230;10.444;2023-05-10T11:36:14;14.80;99.90
12025;DHT22;6073;53.230;10.444;2023-05-10T11:38:40;14.90;99.90
12025;DHT22;6073;53.230;10.444;2023-05-10T11:41:08;14.70;99.90
12025;DHT22;6073;53.230;10.444;2023-05-10T11:43:35;14.90;99.90
12025;DHT22;6073;53.230;10.444;2023-05-10T11:46:04;15.00;99.90
12025;DHT22;6073;53.230;10.444;2023-05-10T11:48:30;15.20;99.90
12025;DHT22;6073;53.230;10.444;2023-05-10T11:50:56;15.20;99.90
12025;DHT22;6073;53.230;10.444;2023-05-10T11:53:25;15.30;99.90
12025;DHT22;6073;53.230;10.444;2023-05-10T11:55:51;15.40;99.90
12025;DHT22;6073;53.230;10.444;2023-05-10T11:58:18;15.40;99.90
12025;DHT22;6073;53.230;10.444;2023-05-10T12:00:44;15.40;99.90
12025;DHT22;6073;53.230;10.444;2023-05-10T12:03:10;15.60;99.90
12025;DHT22;6073;53.230;10.444;2023-05-10T12:05:36;15.60;99.90
12025;DHT22;6073;53.230;10.444;2023-05-10T12:08:15;15.60;99.90
12025;DHT22;6073;53.230;10.444;2023-05-10T12:10:41;15.60;99.90
12025;DHT22;6073;53.230;10.444;2023-05-10T12:13:14;15.70;99.90
12025;DHT22;6073;53.230;10.444;2023-05-10T12:15:40;15.80;99.90
12025;DHT22;6073;53.230;10.444;2023-05-10T12:18:05;15.90;99.90
12025;DHT22;6073;53.230;10.444;2023-05-10T12:20:33;15.90;99.90
12025;DHT22;6073;53.230;10.444;2023-05-10T12:22:59;16.10;99.90
12025;DHT22;6073;53.230;10.444;2023-05-10T12:25:33;16.20;99.90
12025;DHT22;6073;53.230;10.444;2023-05-10T12:28:00;16.20;99.90
12025;DHT22;6073;53.230;10.444;2023-05-10T12:30:31;16.30;99.90
12025;DHT22;6073;53.230;10.444;2023-05-10T12:33:17;16.20;99.90
12025;DHT22;6073;53.230;10.444;2023-05-10T12:35:51;16.20;99.90
12025;DHT22;6073;53.230;10.444;2023-05-10T12:38:28;16.20;99.90
12025;DHT22;6073;53.230;10.444;2023-05-10T12:41:02;16.10;99.90
12025;DHT22;6073;53.230;10.444;2023-05-10T12:43:28;16.00;99.90
12025;DHT22;6073;53.230;10.444;2023-05-10T12:45:53;16.00;99.90
12025;DHT22;6073;53.230;10.444;2023-05-10T12:48:19;16.00;99.90
12025;DHT22;6073;53.230;10.444;2023-05-10T12:50:45;16.00;99.90
12025;DHT22;6073;53.230;10.444;2023-05-10T12:53:13;16.10;99.90
12025;DHT22;6073;53.230;10.444;2023-05-10T12:55:39;16.20;99.90
12025;DHT22;6073;53.230;10.444;2023-05-10T12:58:05;16.40;99.90
12025;DHT22;6073;53.230;10.444;2023-05-10T13:00:30;16.50;99.90
12025;DHT22;6073;53.230;10.444;2023-05-10T13:02:56;16.70;99.90
12025;DHT22;6073;53.230;10.444;2023-05-10T13:05:21;16.80;99.90
12025;DHT22;6073;53.230;10.444;2023-05-10T13:07:47;17.00;99.90
12025;DHT22;6073;53.230;10.444;2023-05-10T13:10:12;17.20;99.90
12025;DHT22;6073;53.230;10.444;2023-05-10T13:12:38;17.40;99.90
12025;DHT22;6073;53.230;10.444;2023-05-10T13:15:04;17.40;99.90
12025;DHT22;6073;53.230;10.444;2023-05-10T13:17:30;17.30;99.90
12025;DHT22;6073;53.230;10.444;2023-05-10T13:19:55;17.20;99.90
12025;DHT22;6073;53.230;10.444;2023-05-10T13:22:21;17.30;99.90
12025;DHT22;6073;53.230;10.444;2023-05-10T13:24:46;17.50;99.90
12025;DHT22;6073;53.230;10.444;2023-05-10T13:27:12;17.80;99.90
12025;DHT22;6073;53.230;10.444;2023-05-10T13:29:38;17.80;99.90
12025;DHT22;6073;53.230;10.444;2023-05-10T13:32:03;17.60;99.90
12025;DHT22;6073;53.230;10.444;2023-05-10T13:34:29;17.50;99.90
12025;DHT22;6073;53.230;10.444;2023-05-10T13:36:55;17.50;99.90
12025;DHT22;6073;53.230;10.444;2023-05-10T13:39:21;17.30;99.90
12025;DHT22;6073;53.230;10.444;2023-05-10T13:41:47;17.30;99.90
12025;DHT22;6073;53.230;10.444;2023-05-10T13:44:13;17.30;99.90
12025;DHT22;6073;53.230;10.444;2023-05-10T13:46:43;17.30;99.90
12025;DHT22;6073;53.230;10.444;2023-05-10T13:49:09;17.20;99.90
12025;DHT22;6073;53.230;10.444;2023-05-10T13:51:35;17.30;99.90
12025;DHT22;6073;53.230;10.444;2023-05-10T13:54:02;17.30;99.90
12025;DHT22;6073;53.230;10.444;2023-05-10T13:56:27;17.20;99.90
12025;DHT22;6073;53.230;10.444;2023-05-10T13:58:53;17.30;99.90
12025;DHT22;6073;53.230;10.444;2023-05-10T14:01:19;17.40;99.90
12025;DHT22;6073;53.230;10.444;2023-05-10T14:03:44;17.50;99.90
12025;DHT22;6073;53.230;10.444;2023-05-10T14:06:10;17.70;99.90
12025;DHT22;6073;53.230;10.444;2023-05-10T14:08:36;17.80;99.90
12025;DHT22;6073;53.230;10.444;2023-05-10T14:11:02;18.00;99.90
12025;DHT22;6073;53.230;10.444;2023-05-10T14:13:27;18.20;99.90
12025;DHT22;6073;53.230;10.444;2023-05-10T14:15:53;18.40;99.90
12025;DHT22;6073;53.230;10.444;2023-05-10T14:18:19;18.70;99.90
12025;DHT22;6073;53.230;10.444;2023-05-10T14:20:45;18.70;99.90
12025;DHT22;6073;53.230;10.444;2023-05-10T14:23:11;18.40;99.90
12025;DHT22;6073;53.230;10.444;2023-05-10T14:25:40;18.20;99.90
12025;DHT22;6073;53.230;10.444;2023-05-10T14:28:05;18.30;99.90
12025;DHT22;6073;53.230;10.444;2023-05-10T14:30:32;18.00;99.90
12025;DHT22;6073;53.230;10.444;2023-05-10T14:33:00;17.90;99.90
12025;DHT22;6073;53.230;10.444;2023-05-10T14:35:27;18.10;99.90
12025;DHT22;6073;53.230;10.444;2023-05-10T14:37:53;18.20;99.90
12025;DHT22;6073;53.230;10.444;2023-05-10T14:40:18;18.20;99.90
12025;DHT22;6073;53.230;10.444;2023-05-10T14:42:44;18.30;99.90
12025;DHT22;6073;53.230;10.444;2023-05-10T14:45:10;18.20;99.90
12025;DHT22;6073;53.230;10.444;2023-05-10T14:47:36;18.30;99.90
12025;DHT22;6073;53.230;10.444;2023-05-10T14:50:01;18.30;99.90
12025;DHT22;6073;53.230;10.444;2023-05-10T14:52:27;18.20;99.90
12025;DHT22;6073;53.230;10.444;2023-05-10T14:54:53;18.40;99.90
12025;DHT22;6073;53.230;10.444;2023-05-10T14:57:18;18.60;99.90
12025;DHT22;6073;53.230;10.444;2023-05-10T14:59:44;18.50;99.90
12025;DHT22;6073;53.230;10.444;2023-05-10T15:02:10;18.40;99.90
12025;DHT22;6073;53.230;10.444;2023-05-10T15:04:36;18.30;99.90
12025;DHT22;6073;53.230;10.444;2023-05-10T15:07:01;18.30;99.90
12025;DHT22;6073;53.230;10.444;2023-05-10T15:09:27;18.20;99.90
12025;DHT22;6073;53.230;10.444;2023-05-10T15:11:53;18.20;99.90
12025;DHT22;6073;53.230;10.444;2023-05-10T15:14:19;18.10;99.90
12025;DHT22;6073;53.230;10.444;2023-05-10T15:16:44;18.10;99.90
12025;DHT22;6073;53.230;10.444;2023-05-10T15:19:10;18.00;99.90
12025;DHT22;6073;53.230;10.444;2023-05-10T15:21:35;18.10;99.90
12025;DHT22;6073;53.230;10.444;2023-05-10T15:24:05;18.20;99.90
12025;DHT22;6073;53.230;10.444;2023-05-10T15:26:31;18.20;99.90
12025;DHT22;6073;53.230;10.444;2023-05-10T15:28:56;18.30;99.90
12025;DHT22;6073;53.230;10.444;2023-05-10T15:31:22;18.30;99.90
12025;DHT22;6073;53.230;10.444;2023-05-10T15:33:47;18.20;99.90
12025;DHT22;6073;53.230;10.444;2023-05-10T15:36:13;18.00;99.90
12025;DHT22;6073;53.230;10.444;2023-05-10T15:38:38;17.90;99.90
12025;DHT22;6073;53.230;10.444;2023-05-10T15:41:04;17.70;99.90
12025;DHT22;6073;53.230;10.444;2023-05-10T15:43:30;17.60;99.90
12025;DHT22;6073;53.230;10.444;2023-05-10T15:45:56;17.60;99.90
12025;DHT22;6073;53.230;10.444;2023-05-10T15:48:21;17.70;99.90
12025;DHT22;6073;53.230;10.444;2023-05-10T15:50:47;17.80;99.90
12025;DHT22;6073;53.230;10.444;2023-05-10T15:53:12;17.90;99.90
12025;DHT22;6073;53.230;10.444;2023-05-10T15:55:38;17.90;99.90
12025;DHT22;6073;53.230;10.444;2023-05-10T15:58:03;18.00;99.90
12025;DHT22;6073;53.230;10.444;2023-05-10T16:00:29;17.90;99.90
12025;DHT22;6073;53.230;10.444;2023-05-10T16:02:55;17.80;99.90
12025;DHT22;6073;53.230;10.444;2023-05-10T16:05:21;17.70;99.90